Time;durP1;ratioP1;P1;durP2;ratioP2;P2;SDS_P1;SDS_P2;PMS_P1;PMS_P2;Temp;Humidity;BMP_temperature;BMP_pressure;BME280_temperature;BME280_humidity;BME280_pressure;Samples;Min_cycle;Max_cycle;Signal;HPM_P1;HPM_P2
2022/05/08 00:00:32;;;;;;;5.38;4.18;;;11.20;35.50;;;;;;4995226;28;35582;-78
2022/05/08 00:02:58;;;;;;;6.05;4.07;;;11.20;35.50;;;;;;5010521;28;33584;-78
2022/05/08 00:05:25;;;;;;;7.25;4.30;;;11.10;35.40;;;;;;5010182;28;34184;-77
2022/05/08 00:07:51;;;;;;;4.38;3.83;;;11.00;35.50;;;;;;5010429;28;34518;-78
2022/05/08 00:10:17;;;;;;;4.60;3.78;;;11.00;35.50;;;;;;5011228;28;35524;-79
2022/05/08 00:12:43;;;;;;;6.05;3.83;;;11.00;35.50;;;;;;4994567;28;34159;-78
2022/05/08 00:15:10;;;;;;;4.13;3.72;;;10.90;35.50;;;;;;5027650;28;34486;-78
2022/05/08 00:17:37;;;;;;;5.13;4.20;;;10.90;35.50;;;;;;5010022;28;34317;-78
2022/05/08 00:20:05;;;;;;;4.43;3.67;;;10.80;35.70;;;;;;5028144;28;34587;-78
2022/05/08 00:22:31;;;;;;;5.47;4.22;;;10.80;35.70;;;;;;4979384;28;34239;-78
2022/05/08 00:24:57;;;;;;;5.35;4.03;;;10.70;35.70;;;;;;4994676;28;34165;-78
2022/05/08 00:27:24;;;;;;;6.43;3.97;;;10.70;35.50;;;;;;4993483;28;34176;-78
2022/05/08 00:29:50;;;;;;;8.07;4.07;;;10.70;35.70;;;;;;5009799;28;35845;-78
2022/05/08 00:32:16;;;;;;;5.35;4.05;;;10.60;35.80;;;;;;4993322;28;34286;-78
2022/05/08 00:34:42;;;;;;;5.85;4.15;;;10.60;35.70;;;;;;5010560;28;34078;-77
2022/05/08 00:37:07;;;;;;;6.13;4.32;;;10.50;35.80;;;;;;5010762;28;34109;-78
2022/05/08 00:39:33;;;;;;;5.95;4.20;;;10.50;36.00;;;;;;5027685;28;34949;-77
2022/05/08 00:42:00;;;;;;;5.32;4.15;;;10.40;36.20;;;;;;4993728;28;34077;-77
2022/05/08 00:44:26;;;;;;;4.40;4.00;;;10.40;36.30;;;;;;5010478;28;34115;-77
2022/05/08 00:46:52;;;;;;;5.60;4.50;;;10.40;36.40;;;;;;5011276;28;34189;-78
2022/05/08 00:49:18;;;;;;;6.90;4.50;;;10.40;36.30;;;;;;5009340;28;35608;-78
2022/05/08 00:51:47;;;;;;;6.10;5.03;;;10.40;36.40;;;;;;5028271;28;34138;-78
2022/05/08 00:54:14;;;;;;;6.60;4.72;;;10.40;36.60;;;;;;5009692;28;34554;-78
2022/05/08 00:56:41;;;;;;;5.47;4.55;;;10.40;36.60;;;;;;5009547;28;34103;-78
2022/05/08 00:59:08;;;;;;;6.85;4.82;;;10.40;36.70;;;;;;5008853;28;34424;-78
2022/05/08 01:01:34;;;;;;;11.13;4.90;;;10.40;36.50;;;;;;5009006;28;34504;-78
2022/05/08 01:04:00;;;;;;;7.20;4.53;;;10.40;36.50;;;;;;5027052;28;34253;-78
2022/05/08 01:06:27;;;;;;;5.90;4.60;;;10.40;36.50;;;;;;5010102;28;34280;-78
2022/05/08 01:08:54;;;;;;;8.38;4.30;;;10.40;36.30;;;;;;4992962;28;35850;-78
2022/05/08 01:11:21;;;;;;;5.85;4.75;;;10.40;36.50;;;;;;5009636;28;34054;-78
2022/05/08 01:13:47;;;;;;;7.20;4.97;;;10.40;36.60;;;;;;5009664;28;34177;-78
2022/05/08 01:16:15;;;;;;;7.22;4.95;;;10.40;36.70;;;;;;4994171;28;34158;-78
2022/05/08 01:18:43;;;;;;;6.13;4.65;;;10.40;36.80;;;;;;5009436;28;35540;-78
2022/05/08 01:21:13;;;;;;;6.90;4.20;;;10.30;36.80;;;;;;4992285;28;34418;-77
2022/05/08 01:23:40;;;;;;;6.82;4.13;;;10.30;37.00;;;;;;5008590;28;34197;-78
2022/05/08 01:26:07;;;;;;;7.28;3.88;;;10.30;36.90;;;;;;4976764;28;34436;-77
2022/05/08 01:28:33;;;;;;;5.07;4.57;;;10.30;36.90;;;;;;5026078;28;34255;-78
2022/05/08 01:30:59;;;;;;;5.32;4.05;;;10.20;36.80;;;;;;4992370;28;34405;-78
2022/05/08 01:33:26;;;;;;;7.72;4.75;;;10.20;36.80;;;;;;5009731;28;34273;-78
2022/05/08 01:35:52;;;;;;;5.97;4.65;;;10.10;36.90;;;;;;5009184;28;34215;-77
2022/05/08 01:38:21;;;;;;;5.15;4.57;;;10.20;37.10;;;;;;5008850;28;35927;-78
2022/05/08 01:40:48;;;;;;;5.72;4.30;;;10.10;37.00;;;;;;5008786;28;34347;-78
2022/05/08 01:43:15;;;;;;;6.10;4.45;;;10.00;36.90;;;;;;5008893;28;34429;-78
2022/05/08 01:45:41;;;;;;;5.63;4.45;;;10.00;37.00;;;;;;5010096;28;34521;-78
2022/05/08 01:50:52;;;;;;;6.35;4.28;;;10.00;36.90;;;;;;5025937;28;34335;-78
2022/05/08 01:53:19;;;;;;;5.43;4.07;;;9.90;37.10;;;;;;4993102;28;34093;-78
2022/05/08 01:55:47;;;;;;;5.75;4.80;;;9.90;37.20;;;;;;5009467;28;34534;-78
2022/05/08 01:58:13;;;;;;;5.43;4.40;;;9.80;37.00;;;;;;5008827;28;35737;-78
2022/05/08 02:00:39;;;;;;;7.18;4.70;;;9.80;37.00;;;;;;5008546;28;34279;-78
2022/05/08 02:03:05;;;;;;;5.53;4.43;;;9.80;36.90;;;;;;5009956;28;34114;-78
2022/05/08 02:05:32;;;;;;;6.38;4.80;;;9.80;36.80;;;;;;5009790;28;34250;-78
2022/05/08 02:08:01;;;;;;;6.97;4.45;;;9.70;36.80;;;;;;5007813;28;35607;-78
2022/05/08 02:10:27;;;;;;;5.75;4.22;;;9.70;37.40;;;;;;5025873;28;34295;-78
2022/05/08 02:12:53;;;;;;;6.47;4.53;;;9.70;37.10;;;;;;5025298;28;34406;-78
2022/05/08 02:15:19;;;;;;;7.68;5.00;;;9.70;37.00;;;;;;5007771;28;34566;-77
2022/05/08 02:17:46;;;;;;;11.38;4.32;;;9.60;37.10;;;;;;5009160;28;34293;-78
2022/05/08 02:20:12;;;;;;;7.60;4.75;;;9.50;37.00;;;;;;5009114;28;34193;-78
2022/05/08 02:22:38;;;;;;;7.10;4.65;;;9.50;36.90;;;;;;5026021;28;34240;-78
2022/05/08 02:25:06;;;;;;;6.07;4.60;;;9.40;37.00;;;;;;4991367;28;34235;-78
2022/05/08 02:27:41;;;;;;;6.85;5.00;;;9.40;37.00;;;;;;4991935;28;36232;-78
2022/05/08 02:30:10;;;;;;;5.57;5.05;;;9.40;38.10;;;;;;4993289;28;34108;-78
2022/05/08 02:32:37;;;;;;;6.30;4.85;;;9.30;37.40;;;;;;5027306;28;33978;-77
2022/05/08 02:35:04;;;;;;;5.25;4.30;;;9.30;37.50;;;;;;4992317;28;34282;-78
2022/05/08 02:37:31;;;;;;;6.10;4.82;;;9.30;37.40;;;;;;4992150;28;35573;-78
2022/05/08 02:39:57;;;;;;;6.90;5.10;;;9.30;37.30;;;;;;4992502;28;34283;-78
2022/05/08 02:42:23;;;;;;;8.63;4.72;;;9.20;37.20;;;;;;5026718;28;34089;-77
2022/05/08 02:44:50;;;;;;;8.13;5.22;;;9.20;37.30;;;;;;5008422;28;34222;-78
2022/05/08 02:47:16;;;;;;;6.18;5.07;;;9.20;37.30;;;;;;4992027;28;36476;-78
2022/05/08 02:49:42;;;;;;;8.13;5.15;;;9.10;37.40;;;;;;5008096;28;34256;-78
2022/05/08 02:52:08;;;;;;;7.20;5.03;;;9.10;37.40;;;;;;5025927;28;34193;-78
2022/05/08 02:54:33;;;;;;;7.25;5.10;;;9.10;37.40;;;;;;4991862;28;34723;-77
2022/05/08 02:59:40;;;;;;;8.80;4.53;;;9.00;37.40;;;;;;5010960;28;34109;-78
2022/05/08 03:02:07;;;;;;;8.23;4.93;;;9.00;37.40;;;;;;5009499;28;34116;-78
2022/05/08 03:04:33;;;;;;;7.18;4.68;;;9.00;37.20;;;;;;4992532;28;34031;-78
2022/05/08 03:07:02;;;;;;;10.02;5.60;;;9.00;37.10;;;;;;5008184;28;35572;-78
2022/05/08 03:09:28;;;;;;;6.07;4.68;;;8.90;37.10;;;;;;4992597;28;33927;-78
2022/05/08 03:11:54;;;;;;;7.72;5.65;;;8.90;37.30;;;;;;5025615;28;34070;-78
2022/05/08 03:14:20;;;;;;;8.38;5.15;;;8.90;37.30;;;;;;5008937;28;34094;-78
2022/05/08 03:16:48;;;;;;;5.75;5.00;;;8.90;37.30;;;;;;4992598;28;36016;-78
2022/05/08 03:19:14;;;;;;;7.78;5.45;;;8.90;37.30;;;;;;5007754;28;34280;-77
2022/05/08 03:21:40;;;;;;;7.50;5.45;;;8.80;37.20;;;;;;4989737;28;34249;-78
2022/05/08 03:24:08;;;;;;;8.50;5.97;;;8.80;37.40;;;;;;4991405;28;34611;-78
2022/05/08 03:26:36;;;;;;;6.07;4.78;;;8.70;37.50;;;;;;5024731;28;34541;-78
2022/05/08 03:29:03;;;;;;;10.35;5.55;;;8.70;37.30;;;;;;5007572;28;34354;-78
2022/05/08 03:31:28;;;;;;;8.52;5.03;;;8.70;37.40;;;;;;4991416;28;34102;-77
2022/05/08 03:33:55;;;;;;;6.63;5.28;;;8.60;37.40;;;;;;5007586;28;34178;-78
2022/05/08 03:36:21;;;;;;;6.40;5.03;;;8.60;37.40;;;;;;4991946;28;36821;-78
2022/05/08 03:38:47;;;;;;;7.40;5.15;;;8.60;37.30;;;;;;5007768;28;34115;-78
2022/05/08 03:41:15;;;;;;;9.13;5.85;;;8.60;37.60;;;;;;5025577;28;34389;-77
2022/05/08 03:43:43;;;;;;;6.90;5.35;;;8.50;37.50;;;;;;5007507;28;34428;-77
2022/05/08 03:46:09;;;;;;;6.28;5.25;;;8.50;37.40;;;;;;5007205;28;35686;-77
2022/05/08 03:48:36;;;;;;;6.40;5.30;;;8.50;37.40;;;;;;5008109;28;34181;-78
2022/05/08 03:51:03;;;;;;;6.50;5.35;;;8.50;37.30;;;;;;4991350;28;34090;-77
2022/05/08 03:53:29;;;;;;;8.02;5.60;;;8.50;37.20;;;;;;4991049;28;33988;-78
2022/05/08 03:55:54;;;;;;;7.22;5.60;;;8.40;37.30;;;;;;5024654;28;35010;-78
2022/05/08 03:58:20;;;;;;;6.03;5.18;;;8.50;37.40;;;;;;4991022;28;34219;-77
2022/05/08 04:00:46;;;;;;;9.15;5.32;;;8.40;37.40;;;;;;4991586;28;34352;-77
2022/05/08 04:03:12;;;;;;;7.10;5.40;;;8.30;37.40;;;;;;5007349;28;34395;-78
2022/05/08 04:05:38;;;;;;;6.50;5.25;;;8.30;37.40;;;;;;5007393;28;35878;-77
2022/05/08 04:08:05;;;;;;;7.10;5.50;;;8.30;37.50;;;;;;4990501;28;34296;-77
2022/05/08 04:10:32;;;;;;;7.57;5.45;;;8.30;37.60;;;;;;5008504;28;34229;-77
2022/05/08 04:12:58;;;;;;;8.57;5.53;;;8.30;37.60;;;;;;4975451;28;34412;-78
2022/05/08 04:18:05;;;;;;;7.43;5.22;;;8.30;37.50;;;;;;5009589;28;34288;-78
2022/05/08 04:20:31;;;;;;;6.20;5.43;;;8.30;37.40;;;;;;4991489;28;34200;-77
2022/05/08 04:25:38;;;;;;;8.23;6.38;;;8.30;37.40;;;;;;5023841;28;34257;-78
2022/05/08 04:28:04;;;;;;;7.00;5.75;;;8.30;37.50;;;;;;5007625;28;34341;-77
2022/05/08 04:30:30;;;;;;;8.60;5.93;;;8.30;37.70;;;;;;5007028;28;34173;-77
2022/05/08 04:32:56;;;;;;;7.38;5.82;;;8.30;37.70;;;;;;4992401;28;34301;-77
2022/05/08 04:35:22;;;;;;;9.27;6.63;;;8.40;37.70;;;;;;4993376;28;35588;-77
2022/05/08 04:37:47;;;;;;;8.05;5.70;;;8.40;37.60;;;;;;5010455;28;34340;-77
2022/05/08 04:40:13;;;;;;;13.20;5.40;;;8.40;37.50;;;;;;4993797;28;34011;-78
2022/05/08 04:42:39;;;;;;;10.50;6.13;;;8.40;37.60;;;;;;4994430;28;34072;-77
2022/05/08 04:45:06;;;;;;;7.95;5.63;;;8.40;37.50;;;;;;4994456;28;36352;-77
2022/05/08 04:47:32;;;;;;;9.05;6.22;;;8.50;37.60;;;;;;4994290;28;34466;-77
2022/05/08 04:49:58;;;;;;;9.43;6.97;;;8.50;37.50;;;;;;5009797;28;34294;-77
2022/05/08 04:52:24;;;;;;;8.13;6.35;;;8.60;37.50;;;;;;4993944;28;34186;-77
2022/05/08 04:54:50;;;;;;;8.45;6.93;;;8.60;37.30;;;;;;4994228;28;35634;-77
2022/05/08 04:57:16;;;;;;;8.70;6.28;;;8.70;37.40;;;;;;4994518;28;34175;-77
2022/05/08 04:59:42;;;;;;;9.52;6.72;;;8.80;37.30;;;;;;5010160;28;34110;-78
2022/05/08 05:02:08;;;;;;;10.63;6.82;;;8.80;37.30;;;;;;5027587;28;33714;-77
2022/05/08 05:04:35;;;;;;;11.35;6.72;;;8.90;37.30;;;;;;4994199;28;36721;-77
2022/05/08 05:07:01;;;;;;;9.10;6.97;;;8.90;37.40;;;;;;5010083;28;34102;-77
2022/05/08 05:09:27;;;;;;;10.35;6.95;;;9.00;37.20;;;;;;5010509;28;34225;-77
2022/05/08 05:11:54;;;;;;;12.25;7.55;;;9.20;37.20;;;;;;4993883;28;34220;-77
2022/05/08 05:14:20;;;;;;;9.65;7.32;;;9.50;37.10;;;;;;5009891;28;35815;-77
2022/05/08 05:16:46;;;;;;;12.20;7.35;;;9.70;36.70;;;;;;4994145;28;34326;-78
2022/05/08 05:19:12;;;;;;;12.77;8.10;;;10.00;36.10;;;;;;4993445;28;34463;-78
2022/05/08 05:21:38;;;;;;;10.52;7.25;;;10.30;35.60;;;;;;5010185;28;34487;-78
2022/05/08 05:24:05;;;;;;;12.05;7.22;;;10.60;35.10;;;;;;5027363;28;34587;-78
2022/05/08 05:26:31;;;;;;;9.48;7.03;;;10.70;34.70;;;;;;4993396;28;34090;-78
2022/05/08 05:28:56;;;;;;;9.90;7.10;;;10.80;34.70;;;;;;5009565;28;34197;-78
2022/05/08 05:31:22;;;;;;;9.18;7.20;;;11.00;34.70;;;;;;5009807;28;34079;-78
2022/05/08 05:33:48;;;;;;;7.60;6.13;;;11.10;34.60;;;;;;5009636;28;35524;-78
2022/05/08 05:36:14;;;;;;;6.85;5.65;;;11.30;34.40;;;;;;4992962;28;34166;-78
2022/05/08 05:38:40;;;;;;;6.22;5.63;;;11.50;34.10;;;;;;5009790;28;34260;-78
2022/05/08 05:41:06;;;;;;;5.88;5.30;;;11.70;33.80;;;;;;5010177;28;34148;-77
2022/05/08 05:43:34;;;;;;;6.57;5.78;;;11.90;33.30;;;;;;5027697;28;34252;-78
2022/05/08 05:48:41;;;;;;;5.65;5.13;;;12.40;32.40;;;;;;5026857;28;34230;-78
2022/05/08 05:51:07;;;;;;;6.65;5.35;;;12.70;32.00;;;;;;4989582;28;34490;-78
2022/05/08 05:53:35;;;;;;;6.50;5.47;;;13.00;31.60;;;;;;5019396;28;34533;-78
2022/05/08 05:56:02;;;;;;;6.10;5.47;;;13.40;31.10;;;;;;4992501;28;34013;-79
2022/05/08 05:58:27;;;;;;;6.50;5.10;;;13.70;30.60;;;;;;5028466;28;34057;-79
2022/05/08 06:00:53;;;;;;;6.60;5.90;;;14.10;30.00;;;;;;4994394;28;34154;-78
2022/05/08 06:03:19;;;;;;;6.70;5.45;;;14.40;29.50;;;;;;5010379;28;35821;-78
2022/05/08 06:05:46;;;;;;;6.43;5.65;;;14.60;29.80;;;;;;4993961;28;34376;-78
2022/05/08 06:08:13;;;;;;;6.65;5.95;;;14.80;29.00;;;;;;4978132;28;34561;-79
2022/05/08 06:10:39;;;;;;;6.68;5.72;;;15.10;28.80;;;;;;5028952;28;34083;-78
2022/05/08 06:13:05;;;;;;;7.15;6.05;;;15.30;28.40;;;;;;5011724;28;36379;-78
2022/05/08 06:15:31;;;;;;;7.68;5.93;;;15.50;28.30;;;;;;5011233;28;34182;-79
2022/05/08 06:17:57;;;;;;;6.85;5.72;;;15.80;27.80;;;;;;5011528;28;33669;-80
2022/05/08 06:20:23;;;;;;;8.40;6.50;;;16.00;27.40;;;;;;5010825;28;34158;-79
2022/05/08 06:22:49;;;;;;;6.85;5.75;;;16.10;27.00;;;;;;5028127;28;34899;-79
2022/05/08 06:25:15;;;;;;;9.65;6.30;;;16.20;26.80;;;;;;5010084;28;34232;-79
2022/05/08 06:27:41;;;;;;;7.68;6.35;;;16.40;26.70;;;;;;4996235;28;34160;-78
2022/05/08 06:30:07;;;;;;;9.23;6.40;;;16.70;26.70;;;;;;5011865;28;34166;-79
2022/05/08 06:32:35;;;;;;;9.35;7.15;;;16.90;26.60;;;;;;4994780;28;35787;-79
2022/05/08 06:35:01;;;;;;;10.02;7.13;;;17.10;26.50;;;;;;5028443;28;34098;-79
2022/05/08 06:37:27;;;;;;;11.00;7.38;;;17.40;25.90;;;;;;5010249;28;34247;-80
2022/05/08 06:39:53;;;;;;;10.20;7.65;;;17.50;25.40;;;;;;4994577;28;34274;-78
2022/05/08 06:42:19;;;;;;;11.20;8.13;;;17.70;25.20;;;;;;4994113;28;35659;-79
2022/05/08 06:44:45;;;;;;;11.40;8.38;;;17.80;24.80;;;;;;5006765;28;34132;-78
2022/05/08 06:47:12;;;;;;;12.75;8.68;;;17.90;24.90;;;;;;4991526;28;34165;-78
2022/05/08 06:49:38;;;;;;;13.25;9.20;;;18.00;24.70;;;;;;4973033;28;34391;-78
2022/05/08 06:52:04;;;;;;;15.55;9.63;;;18.20;24.70;;;;;;4972614;28;36178;-78
2022/05/08 06:54:30;;;;;;;13.02;8.18;;;18.40;24.70;;;;;;4973429;28;34352;-79
2022/05/08 06:56:56;;;;;;;17.10;9.90;;;18.60;24.40;;;;;;4991812;28;34319;-79
2022/05/08 07:02:04;;;;;;;16.30;10.85;;;18.70;24.40;;;;;;5025016;28;34289;-79
2022/05/08 07:04:30;;;;;;;15.27;10.10;;;18.90;24.40;;;;;;5025913;28;34359;-78
2022/05/08 07:06:56;;;;;;;19.92;12.43;;;19.10;24.60;;;;;;5008215;28;34234;-79
2022/05/08 07:09:22;;;;;;;17.52;11.23;;;19.50;24.50;;;;;;5025466;28;34468;-78
2022/05/08 07:11:47;;;;;;;15.45;10.18;;;19.70;24.40;;;;;;5007895;28;36357;-78
2022/05/08 07:14:14;;;;;;;18.20;11.52;;;19.90;24.10;;;;;;5008330;28;34485;-78
2022/05/08 07:16:40;;;;;;;17.67;11.50;;;20.00;23.80;;;;;;5007234;28;34141;-78
2022/05/08 07:19:06;;;;;;;18.75;12.27;;;20.20;23.50;;;;;;5007610;28;34135;-78
2022/05/08 07:21:32;;;;;;;18.92;13.00;;;20.40;23.50;;;;;;5007821;28;34452;-77
2022/05/08 07:23:58;;;;;;;21.65;13.05;;;20.60;23.90;;;;;;5007852;28;34105;-78
2022/05/08 07:26:24;;;;;;;21.80;13.15;;;20.70;23.30;;;;;;4975021;28;34065;-78
2022/05/08 07:28:50;;;;;;;19.25;12.90;;;20.80;23.50;;;;;;4986788;28;34324;-78
2022/05/08 07:31:16;;;;;;;23.17;14.27;;;20.60;23.50;;;;;;5000093;28;35611;-77
2022/05/08 07:33:42;;;;;;;20.40;13.50;;;20.50;23.70;;;;;;5006824;28;34290;-78
2022/05/08 07:36:15;;;;;;;21.33;13.60;;;20.50;23.60;;;;;;4991154;28;34203;-78
2022/05/08 07:38:45;;;;;;;21.80;13.82;;;20.60;23.80;;;;;;5007050;28;34141;-78
2022/05/08 07:41:14;;;;;;;21.05;13.70;;;20.60;23.80;;;;;;4975281;28;35694;-77
2022/05/08 07:43:42;;;;;;;19.48;13.57;;;20.70;24.00;;;;;;5014930;28;34145;-78
2022/05/08 07:46:08;;;;;;;22.60;14.10;;;20.90;23.80;;;;;;5021734;28;34177;-78
2022/05/08 07:48:35;;;;;;;25.05;17.33;;;21.20;23.80;;;;;;5027337;28;34249;-77
2022/05/08 07:51:02;;;;;;;21.55;13.38;;;21.20;23.50;;;;;;5043649;28;34247;-77
2022/05/08 07:53:29;;;;;;;20.85;13.25;;;21.20;23.30;;;;;;5027044;28;34391;-79
2022/05/08 07:55:55;;;;;;;22.42;13.68;;;21.10;23.10;;;;;;4992312;28;34596;-77
2022/05/08 07:58:22;;;;;;;17.23;13.15;;;21.10;23.20;;;;;;5007123;28;34499;-77
2022/05/08 08:00:53;;;;;;;20.25;13.20;;;21.20;23.40;;;;;;5030967;28;34236;-77
2022/05/08 08:03:21;;;;;;;20.83;14.05;;;21.10;23.40;;;;;;5011304;28;34490;-76
2022/05/08 08:05:48;;;;;;;18.00;12.68;;;21.00;23.40;;;;;;5000231;28;34208;-78
2022/05/08 08:08:16;;;;;;;18.13;12.38;;;20.90;23.70;;;;;;5025255;28;34198;-77
2022/05/08 08:10:42;;;;;;;18.92;11.80;;;20.70;23.80;;;;;;5021659;28;35791;-77
2022/05/08 08:13:08;;;;;;;18.50;13.63;;;20.60;23.50;;;;;;5016026;28;34886;-76
2022/05/08 08:15:34;;;;;;;19.88;12.25;;;20.60;23.60;;;;;;5028466;28;34173;-75
2022/05/08 08:18:00;;;;;;;19.02;13.32;;;20.60;23.60;;;;;;5011674;28;34630;-77
2022/05/08 08:20:26;;;;;;;18.38;12.35;;;20.60;23.60;;;;;;5012311;28;35704;-76
2022/05/08 08:22:53;;;;;;;17.95;12.48;;;20.60;23.50;;;;;;5010071;28;34107;-78
2022/05/08 08:25:20;;;;;;;17.45;11.60;;;20.50;23.50;;;;;;5009246;28;34260;-77
2022/05/08 08:27:46;;;;;;;14.85;11.60;;;20.80;23.20;;;;;;5010254;28;34284;-76
2022/05/08 08:30:13;;;;;;;17.25;12.13;;;21.00;23.00;;;;;;5009866;28;35455;-76
2022/05/08 08:32:39;;;;;;;17.45;11.45;;;21.20;22.40;;;;;;4975312;28;34355;-76
2022/05/08 08:35:05;;;;;;;16.88;11.70;;;21.60;21.70;;;;;;4998004;28;34090;-77
2022/05/08 08:37:31;;;;;;;16.27;10.85;;;22.00;21.40;;;;;;4990931;28;34122;-76
2022/05/08 08:39:57;;;;;;;17.40;11.60;;;22.30;21.00;;;;;;4993468;28;35946;-76
2022/05/08 08:42:31;;;;;;;15.48;10.98;;;22.40;20.60;;;;;;5023888;28;34066;-76
2022/05/08 08:47:54;;;;;;;14.77;10.63;;;22.90;19.20;;;;;;5008744;28;33751;-78
2022/05/08 08:50:24;;;;;;;14.02;11.13;;;23.30;18.40;;;;;;5021349;28;36083;-76
2022/05/08 08:52:50;;;;;;;15.80;10.98;;;23.50;18.40;;;;;;5023943;28;34226;-78
2022/05/08 08:55:17;;;;;;;17.55;11.27;;;23.60;18.90;;;;;;4991830;28;34464;-76
2022/05/08 08:57:44;;;;;;;14.82;10.48;;;23.70;18.70;;;;;;4992098;28;34278;-77
2022/05/08 09:00:11;;;;;;;17.02;11.48;;;23.70;18.70;;;;;;5027857;28;37601;-76
2022/05/08 09:02:37;;;;;;;13.10;10.32;;;23.60;18.60;;;;;;5012754;28;34118;-78
2022/05/08 09:05:05;;;;;;;16.00;11.30;;;23.60;18.50;;;;;;5009178;28;34298;-77
2022/05/08 09:07:41;;;;;;;13.73;10.38;;;23.70;17.90;;;;;;5011945;28;34161;-75
2022/05/08 09:10:19;;;;;;;17.08;11.35;;;23.90;16.30;;;;;;5031464;28;35835;-78
2022/05/08 09:13:02;;;;;;;14.43;10.77;;;23.90;15.70;;;;;;4994804;28;34244;-78
2022/05/08 09:15:30;;;;;;;17.30;10.93;;;24.10;15.40;;;;;;4995827;28;34413;-76
2022/05/08 09:18:03;;;;;;;13.18;10.55;;;24.30;17.10;;;;;;5013280;28;34137;-76
2022/05/08 09:20:34;;;;;;;16.98;10.38;;;24.50;16.20;;;;;;4995413;28;35650;-78
2022/05/08 09:23:19;;;;;;;13.85;9.70;;;24.60;15.80;;;;;;4994822;28;34061;-77
2022/05/08 09:25:52;;;;;;;14.13;9.13;;;24.90;16.00;;;;;;5029586;28;34339;-76
2022/05/08 09:28:21;;;;;;;12.52;9.15;;;24.90;15.60;;;;;;5010182;28;34152;-76
2022/05/08 09:31:05;;;;;;;12.93;9.32;;;25.00;16.00;;;;;;5012216;28;35910;-77
2022/05/08 09:33:40;;;;;;;12.93;9.57;;;25.10;14.40;;;;;;5013956;28;34433;-78
2022/05/08 09:36:24;;;;;;;11.95;8.75;;;25.20;11.90;;;;;;4997331;28;34174;-77
2022/05/08 09:38:55;;;;;;;12.52;9.13;;;25.30;13.40;;;;;;5009905;28;34068;-76
2022/05/08 09:41:26;;;;;;;13.65;9.70;;;25.30;15.00;;;;;;4977804;28;36555;-76
2022/05/08 09:43:54;;;;;;;12.27;9.07;;;25.30;14.80;;;;;;4992793;28;34041;-76
2022/05/08 09:46:21;;;;;;;12.63;8.85;;;25.50;14.90;;;;;;4992391;28;34183;-76
2022/05/08 09:48:48;;;;;;;11.25;8.23;;;25.50;14.80;;;;;;4961971;28;34246;-76
2022/05/08 09:51:15;;;;;;;13.23;10.45;;;25.50;14.70;;;;;;5024822;28;34584;-76
2022/05/08 09:53:42;;;;;;;13.60;8.18;;;25.60;14.80;;;;;;5011405;28;34188;-76
2022/05/08 09:56:10;;;;;;;11.93;8.98;;;25.60;14.60;;;;;;4997061;28;34300;-77
2022/05/08 09:58:40;;;;;;;11.02;8.45;;;25.70;14.50;;;;;;4999957;28;34471;-76
2022/05/08 10:01:07;;;;;;;13.20;9.60;;;26.00;14.30;;;;;;4990857;28;36730;-78
2022/05/08 10:03:33;;;;;;;13.55;8.73;;;26.00;14.10;;;;;;4992706;28;34193;-77
2022/05/08 10:06:00;;;;;;;10.32;8.30;;;25.80;13.80;;;;;;4990844;28;34174;-76
2022/05/08 10:08:36;;;;;;;12.50;7.93;;;25.80;13.80;;;;;;4991106;28;34413;-77
2022/05/08 10:13:54;;;;;;;11.43;8.73;;;25.50;12.20;;;;;;5013289;28;34240;-80
2022/05/08 10:16:50;;;;;;;11.93;8.40;;;25.50;13.40;;;;;;4991352;28;34381;-76
2022/05/08 10:19:43;;;;;;;13.48;8.63;;;25.70;11.50;;;;;;5025449;28;34069;-76
2022/05/08 10:22:10;;;;;;;9.95;8.20;;;25.70;9.80;;;;;;5000375;28;36066;-76
2022/05/08 10:24:53;;;;;;;11.10;8.80;;;25.90;13.20;;;;;;5011429;28;34289;-76
2022/05/08 10:27:23;;;;;;;11.82;8.07;;;26.10;10.90;;;;;;4990162;28;34235;-79
2022/05/08 10:30:19;;;;;;;12.02;7.68;;;26.30;12.70;;;;;;5007274;28;33969;-77
2022/05/08 10:32:50;;;;;;;12.70;8.18;;;26.40;9.60;;;;;;4994904;28;35647;-77
2022/05/08 10:35:19;;;;;;;10.25;8.63;;;26.50;11.30;;;;;;4990174;28;34134;-78
2022/05/08 10:37:51;;;;;;;11.20;8.73;;;26.60;12.20;;;;;;4991942;28;33777;-77
2022/05/08 10:40:34;;;;;;;9.80;8.13;;;26.80;10.40;;;;;;4975740;28;34514;-76
2022/05/08 10:43:25;;;;;;;10.57;8.57;;;26.70;9.10;;;;;;4992675;28;34172;-76
2022/05/08 10:45:51;;;;;;;10.18;8.25;;;26.80;12.00;;;;;;5009758;28;34385;-76
2022/05/08 10:48:19;;;;;;;11.43;7.60;;;26.90;11.80;;;;;;4992459;28;34335;-77
2022/05/08 10:50:49;;;;;;;8.38;6.78;;;27.00;11.80;;;;;;4987355;28;34143;-76
2022/05/08 10:53:32;;;;;;;8.07;6.22;;;26.90;10.60;;;;;;4991202;28;35816;-76
2022/05/08 10:56:04;;;;;;;10.90;7.80;;;26.90;8.10;;;;;;4974996;28;34286;-76
2022/05/08 10:58:30;;;;;;;9.32;7.63;;;26.90;10.30;;;;;;4977017;28;34130;-76
2022/05/08 11:00:57;;;;;;;10.35;7.55;;;27.00;10.90;;;;;;4992385;28;34151;-76
2022/05/08 11:03:25;;;;;;;16.38;11.05;;;26.90;9.90;;;;;;4975037;28;35697;-78
2022/05/08 11:05:52;;;;;;;11.55;7.30;;;26.90;10.20;;;;;;4975303;28;34119;-76
2022/05/08 11:08:23;;;;;;;7.70;6.90;;;26.90;10.20;;;;;;5002400;28;34002;-77
2022/05/08 11:10:58;;;;;;;9.52;6.97;;;27.00;9.30;;;;;;4997714;28;34059;-78
2022/05/08 11:13:26;;;;;;;8.60;6.65;;;27.10;8.90;;;;;;5010896;28;34190;-77
2022/05/08 11:15:52;;;;;;;9.23;6.90;;;27.10;10.40;;;;;;5010695;28;34173;-75
2022/05/08 11:18:20;;;;;;;8.57;6.40;;;26.90;9.90;;;;;;5011213;28;34331;-77
2022/05/08 11:20:53;;;;;;;7.63;5.95;;;27.00;10.00;;;;;;5011768;28;34216;-79
2022/05/08 11:23:21;;;;;;;8.10;6.22;;;27.20;8.00;;;;;;5022516;28;34437;-76
2022/05/08 11:25:49;;;;;;;9.10;7.00;;;27.40;9.00;;;;;;5025615;28;34371;-76
2022/05/08 11:28:17;;;;;;;7.07;6.30;;;27.60;9.60;;;;;;5000629;28;34096;-79
2022/05/08 11:30:47;;;;;;;8.30;6.30;;;27.60;8.90;;;;;;4990249;28;34135;-79
2022/05/08 11:36:06;;;;;;;7.60;6.63;;;27.70;9.10;;;;;;5007251;28;34103;-78
2022/05/08 11:38:50;;;;;;;7.88;5.93;;;27.80;8.50;;;;;;5006502;28;34656;-77
2022/05/08 11:41:20;;;;;;;8.02;5.38;;;27.80;8.20;;;;;;5008100;28;34533;-76
2022/05/08 11:43:49;;;;;;;8.65;6.55;;;28.00;8.10;;;;;;4996935;28;35748;-78
2022/05/08 11:46:17;;;;;;;10.77;6.38;;;28.10;8.70;;;;;;4964635;28;34442;-77
2022/05/08 11:48:46;;;;;;;7.35;6.25;;;27.80;8.50;;;;;;5013953;28;34032;-76
2022/05/08 11:51:13;;;;;;;9.00;6.00;;;27.60;9.00;;;;;;5017122;28;34120;-77
2022/05/08 11:53:42;;;;;;;8.70;6.90;;;27.30;9.20;;;;;;4997584;28;35725;-77
2022/05/08 11:56:28;;;;;;;9.93;7.07;;;26.60;9.30;;;;;;4997282;28;34127;-77
2022/05/08 11:58:57;;;;;;;9.63;7.03;;;26.20;6.90;;;;;;5015389;28;34382;-79
2022/05/08 12:01:28;;;;;;;9.60;7.15;;;25.80;9.80;;;;;;4997044;28;34124;-76
2022/05/08 12:03:55;;;;;;;10.23;7.57;;;25.50;10.50;;;;;;4981370;28;36891;-76
2022/05/08 12:06:22;;;;;;;11.20;7.50;;;25.30;10.80;;;;;;4996701;28;34223;-76
2022/05/08 12:08:48;;;;;;;9.32;7.13;;;25.30;11.10;;;;;;5015160;28;34191;-77
2022/05/08 12:11:31;;;;;;;10.52;7.53;;;25.40;11.00;;;;;;4996002;28;34155;-78
2022/05/08 12:14:06;;;;;;;11.23;7.93;;;25.60;9.10;;;;;;5013387;28;34347;-78
2022/05/08 12:16:33;;;;;;;10.93;8.35;;;25.90;10.50;;;;;;4995748;28;34258;-78
2022/05/08 12:19:15;;;;;;;9.32;7.88;;;26.20;10.70;;;;;;4979828;28;34412;-77
2022/05/08 12:21:44;;;;;;;10.57;7.38;;;26.50;8.80;;;;;;4996237;28;34539;-78
2022/05/08 12:24:14;;;;;;;9.80;7.47;;;26.80;9.80;;;;;;4994334;28;36045;-77
2022/05/08 12:26:42;;;;;;;11.57;8.00;;;27.00;10.00;;;;;;4994645;28;34244;-77
2022/05/08 12:29:15;;;;;;;10.15;7.32;;;27.20;9.80;;;;;;5013061;28;34119;-77
2022/05/08 12:31:41;;;;;;;10.05;7.57;;;27.30;9.50;;;;;;5011124;28;34433;-78
2022/05/08 12:34:10;;;;;;;9.40;7.53;;;27.30;9.70;;;;;;5012256;28;36239;-77
2022/05/08 12:36:40;;;;;;;13.80;7.97;;;27.50;9.60;;;;;;5012289;28;34165;-77
2022/05/08 12:39:07;;;;;;;9.63;6.50;;;27.60;9.50;;;;;;5012515;28;34139;-80
2022/05/08 12:41:33;;;;;;;11.18;7.43;;;27.70;9.30;;;;;;5011917;28;34177;-76
2022/05/08 12:44:00;;;;;;;10.20;7.15;;;27.50;9.20;;;;;;5012533;28;35395;-76
2022/05/08 12:46:26;;;;;;;10.50;7.78;;;27.40;9.10;;;;;;5013429;28;34254;-79
2022/05/08 12:48:52;;;;;;;8.45;7.00;;;27.40;9.20;;;;;;4995149;28;34943;-75
2022/05/08 12:51:18;;;;;;;9.02;7.03;;;27.40;9.30;;;;;;5011021;28;34533;-79
2022/05/08 12:53:44;;;;;;;9.77;7.15;;;27.40;9.30;;;;;;5010770;28;36232;-76
2022/05/08 12:56:10;;;;;;;8.25;6.35;;;27.50;9.20;;;;;;5006760;28;34509;-79
2022/05/08 13:01:17;;;;;;;10.93;6.40;;;27.60;9.00;;;;;;5010475;28;34760;-77
2022/05/08 13:03:43;;;;;;;8.25;6.45;;;27.50;8.90;;;;;;4967321;28;36963;-77
2022/05/08 13:06:09;;;;;;;10.57;6.75;;;27.40;8.80;;;;;;4994902;28;34488;-77
2022/05/08 13:08:34;;;;;;;9.27;7.07;;;27.40;8.80;;;;;;5012645;28;34308;-76
2022/05/08 13:11:02;;;;;;;9.55;7.22;;;27.40;8.70;;;;;;5029588;28;34426;-77
2022/05/08 13:13:31;;;;;;;9.27;6.53;;;27.30;8.80;;;;;;4975507;28;36589;-78
2022/05/08 13:15:58;;;;;;;10.32;7.05;;;27.10;8.80;;;;;;5024561;28;34105;-79